createdAt,value
2018-06-09T00:00:49.395Z,20.07
2018-06-09T00:01:49.347Z,20.09
2018-06-09T00:02:48.875Z,20.09
2018-06-09T00:03:49.145Z,20.09
2018-06-09T00:04:49.417Z,20.25
2018-06-09T00:05:49.449Z,20.19
2018-06-09T00:06:49.473Z,20.32
2018-06-09T00:07:49.499Z,20.32
2018-06-09T00:08:49.516Z,20.22
2018-06-09T00:09:49.530Z,20.26
2018-06-09T00:10:49.557Z,20.29
2018-06-09T00:11:49.079Z,20.43
2018-06-09T00:12:49.354Z,20.37
2018-06-09T00:13:49.385Z,20.34
2018-06-09T00:14:49.661Z,20.31
2018-06-09T00:15:49.742Z,20.32
2018-06-09T00:16:49.714Z,20.29
2018-06-09T00:17:49.738Z,20.26
2018-06-09T00:18:49.766Z,20.25
2018-06-09T00:19:49.536Z,20.18
2018-06-09T00:20:49.822Z,20.11
2018-06-09T00:21:49.833Z,20.04
2018-06-09T00:22:49.608Z,20.13
2018-06-09T00:23:49.632Z,20.22
2018-06-09T00:24:49.400Z,20.31
2018-06-09T00:25:49.931Z,20.39
2018-06-09T00:26:49.952Z,20.32
2018-06-09T00:27:49.727Z,20.24
2018-06-09T00:28:50.013Z,20.31
2018-06-09T00:29:49.517Z,20.32
2018-06-09T00:30:50.094Z,20.36
2018-06-09T00:31:50.071Z,20.44
2018-06-09T00:32:49.789Z,20.39
2018-06-09T00:33:50.175Z,20.39
2018-06-09T00:34:50.141Z,20.4
2018-06-09T00:35:50.237Z,20.48
2018-06-09T00:36:49.942Z,20.41
2018-06-09T00:37:50.217Z,20.34
2018-06-09T00:38:50.246Z,20.31
2018-06-09T00:39:50.266Z,20.36
2018-06-09T00:40:50.293Z,20.32
2018-06-09T00:41:50.312Z,20.37
2018-06-09T00:42:50.354Z,20.4
2018-06-09T00:43:50.120Z,20.47
2018-06-09T00:44:50.147Z,20.65
2018-06-09T00:45:50.573Z,20.5
2018-06-09T00:46:50.457Z,20.52
2018-06-09T00:47:50.470Z,20.59
2018-06-09T00:48:50.240Z,20.65
2018-06-09T00:49:50.267Z,20.7
2018-06-09T00:50:50.547Z,20.74
2018-06-09T00:51:50.323Z,20.8
2018-06-09T00:52:50.347Z,20.8
2018-06-09T00:53:50.621Z,20.8
2018-06-09T00:54:50.647Z,20.65
2018-06-09T00:55:50.418Z,20.66
2018-06-09T00:56:50.445Z,20.77
2018-06-09T00:57:50.466Z,20.93
2018-06-09T00:58:50.750Z,20.69
2018-06-09T00:59:50.768Z,20.74
2018-06-09T01:00:50.590Z,20.77
2018-06-09T01:01:50.814Z,20.62
2018-06-09T01:02:50.593Z,20.55
2018-06-09T01:03:50.868Z,20.6
2018-06-09T01:04:50.893Z,20.58
2018-06-09T01:05:50.667Z,20.4
2018-06-09T01:06:50.939Z,20.24
2018-06-09T01:07:50.967Z,20.24
2018-06-09T01:08:50.745Z,20.48
2018-06-09T01:09:51.012Z,20.59
2018-06-09T01:10:51.051Z,20.56
2018-06-09T01:11:51.061Z,20.44
2018-06-09T01:12:51.097Z,20.48
2018-06-09T01:13:50.857Z,20.41
2018-06-09T01:14:50.883Z,20.41
2018-06-09T01:15:50.965Z,20.47
2018-06-09T01:16:51.187Z,20.43
2018-06-09T01:17:51.211Z,20.51
2018-06-09T01:18:50.984Z,20.36
2018-06-09T01:19:51.011Z,20.36
2018-06-09T01:20:51.038Z,20.36
2018-06-09T01:21:51.315Z,20.32
2018-06-09T01:22:51.341Z,20.28
2018-06-09T01:23:51.106Z,20.29
2018-06-09T01:24:51.369Z,19.96
2018-06-09T01:25:51.401Z,19.88
2018-06-09T01:26:51.421Z,19.74
2018-06-09T01:27:51.196Z,19.67
2018-06-09T01:28:51.474Z,19.59
2018-06-09T01:29:51.511Z,19.49
2018-06-09T01:30:51.326Z,19.59
2018-06-09T01:31:51.555Z,19.44
2018-06-09T01:32:51.325Z,19.58
2018-06-09T01:33:51.586Z,19.63
2018-06-09T01:34:51.373Z,19.52
2018-06-09T01:35:51.649Z,19.36
2018-06-09T01:36:51.671Z,19.4
2018-06-09T01:37:51.705Z,19.54
2018-06-09T01:38:51.722Z,19.52
2018-06-09T01:39:51.748Z,19.49
2018-06-09T01:40:51.782Z,19.49
2018-06-09T01:41:51.796Z,19.52
2018-06-09T01:42:51.809Z,19.59
2018-06-09T01:43:51.844Z,19.7
2018-06-09T01:44:51.603Z,19.66
2018-06-09T01:45:51.931Z,19.62
2018-06-09T01:46:51.927Z,19.64
2018-06-09T01:47:51.928Z,19.76
2018-06-09T01:48:51.950Z,19.74
2018-06-09T01:49:51.982Z,19.77
2018-06-09T01:50:52.005Z,19.89
2018-06-09T01:51:51.778Z,19.85
2018-06-09T01:52:51.684Z,19.86
2018-06-09T01:53:52.079Z,20.02
2018-06-09T01:54:51.854Z,20.07
2018-06-09T01:55:52.130Z,20.1
2018-06-09T01:56:52.158Z,20.04
2018-06-09T01:57:52.202Z,20.09
2018-06-09T01:58:52.204Z,19.96
2018-06-09T01:59:52.225Z,19.92
2018-06-09T02:00:52.302Z,20.04
2018-06-09T02:01:52.013Z,19.88
2018-06-09T02:02:52.288Z,19.84
2018-06-09T02:03:52.316Z,19.85
2018-06-09T02:04:52.088Z,19.84
2018-06-09T02:05:52.467Z,19.74
2018-06-09T02:06:52.386Z,19.84
2018-06-09T02:07:52.438Z,19.88
2018-06-09T02:08:51.929Z,19.74
2018-06-09T02:09:52.468Z,19.85
2018-06-09T02:10:52.484Z,19.69
2018-06-09T02:11:52.498Z,19.81
2018-06-09T02:12:52.274Z,19.84
2018-06-09T02:13:52.298Z,19.74
2018-06-09T02:14:52.575Z,19.76
2018-06-09T02:15:52.653Z,19.81
2018-06-09T02:16:52.622Z,19.74
2018-06-09T02:17:52.645Z,19.79
2018-06-09T02:18:52.677Z,19.7
2018-06-09T02:19:52.441Z,19.58
2018-06-09T02:20:52.718Z,19.54
2018-06-09T02:21:52.741Z,19.47
2018-06-09T02:22:52.512Z,19.34
2018-06-09T02:23:52.808Z,19.27
2018-06-09T02:24:52.831Z,19.16
2018-06-09T02:25:52.861Z,19.15
2018-06-09T02:26:52.630Z,19.14
2018-06-09T02:27:52.903Z,19.18
2018-06-09T02:28:52.938Z,19.26
2018-06-09T02:29:52.951Z,19.15
2018-06-09T02:30:53.038Z,19.07
2018-06-09T02:31:53.003Z,19.16
2018-06-09T02:32:53.069Z,19
2018-06-09T02:33:52.797Z,18.98
2018-06-09T02:34:53.078Z,18.86
2018-06-09T02:35:53.147Z,18.81
2018-06-09T02:36:53.139Z,18.95
2018-06-09T02:37:53.152Z,18.9
2018-06-09T02:38:52.672Z,18.84
2018-06-09T02:39:53.177Z,18.81
2018-06-09T02:40:53.308Z,18.74
2018-06-09T02:41:52.974Z,18.95
2018-06-09T02:42:53.249Z,18.93
2018-06-09T02:43:53.272Z,18.81
2018-06-09T02:44:53.317Z,18.8
2018-06-09T02:45:53.072Z,18.88
2018-06-09T02:46:53.366Z,18.78
2018-06-09T02:47:53.386Z,18.84
2018-06-09T02:48:53.408Z,18.81
2018-06-09T02:49:53.171Z,18.84
2018-06-09T02:50:53.509Z,18.86
2018-06-09T02:51:53.478Z,18.9
2018-06-09T02:52:53.515Z,18.86
2018-06-09T02:53:53.523Z,18.9
2018-06-09T02:54:53.303Z,18.86
2018-06-09T02:55:53.062Z,18.81
2018-06-09T02:56:53.340Z,18.73
2018-06-09T02:57:53.354Z,18.62
2018-06-09T02:58:53.636Z,18.62
2018-06-09T02:59:53.399Z,18.66
2018-06-09T03:00:53.425Z,18.52
2018-06-09T03:01:53.702Z,18.53
2018-06-09T03:02:53.473Z,18.59
2018-06-09T03:03:53.748Z,18.5
2018-06-09T03:04:53.535Z,18.53
2018-06-09T03:05:53.604Z,18.55
2018-06-09T03:06:53.830Z,18.5
2018-06-09T03:07:53.599Z,18.5
2018-06-09T03:08:53.887Z,18.41
2018-06-09T03:09:53.911Z,18.53
2018-06-09T03:10:53.925Z,18.33
2018-06-09T03:11:53.942Z,18.37
2018-06-09T03:12:53.714Z,18.38
2018-06-09T03:13:53.741Z,18.43
2018-06-09T03:14:53.772Z,18.4
2018-06-09T03:15:53.782Z,18.44
2018-06-09T03:16:54.057Z,18.23
2018-06-09T03:17:54.089Z,18.23
2018-06-09T03:18:54.096Z,18.29
2018-06-09T03:19:54.121Z,18.29
2018-06-09T03:20:54.201Z,18.28
2018-06-09T03:21:54.169Z,18.15
2018-06-09T03:22:54.191Z,18.34
2018-06-09T03:23:54.211Z,18.29
2018-06-09T03:24:54.237Z,18.23
2018-06-09T03:25:54.260Z,18.26
2018-06-09T03:26:54.284Z,18.31
2018-06-09T03:27:54.308Z,18.37
2018-06-09T03:28:54.337Z,18.35
2018-06-09T03:29:54.357Z,18.47
2018-06-09T03:30:54.398Z,18.52
2018-06-09T03:31:54.403Z,18.52
2018-06-09T03:32:54.425Z,18.6
2018-06-09T03:33:54.450Z,18.78
2018-06-09T03:34:54.471Z,18.66
2018-06-09T03:35:54.558Z,18.73
2018-06-09T03:36:54.531Z,18.75
2018-06-09T03:37:54.046Z,18.8
2018-06-09T03:38:54.577Z,18.86
2018-06-09T03:39:54.600Z,18.84
2018-06-09T03:40:54.621Z,18.81
2018-06-09T03:41:54.649Z,18.77
2018-06-09T03:42:54.671Z,18.65
2018-06-09T03:43:54.699Z,18.78
2018-06-09T03:44:54.712Z,18.83
2018-06-09T03:45:54.718Z,18.9
2018-06-09T03:46:54.737Z,18.98
2018-06-09T03:47:54.516Z,18.9
2018-06-09T03:48:54.678Z,18.93
2018-06-09T03:49:54.809Z,18.92
2018-06-09T03:50:54.886Z,19
2018-06-09T03:51:54.862Z,18.98
2018-06-09T03:52:54.877Z,18.96
2018-06-09T03:53:54.652Z,18.98
2018-06-09T03:54:54.676Z,18.95
2018-06-09T03:55:55.221Z,18.98
2018-06-09T03:56:54.744Z,18.93
2018-06-09T03:57:55.018Z,19.02
2018-06-09T03:58:55.045Z,18.99
2018-06-09T03:59:55.065Z,19.09
2018-06-09T04:00:55.099Z,19.12
2018-06-09T04:01:55.118Z,19.19
2018-06-09T04:02:55.137Z,19.26
2018-06-09T04:03:55.164Z,19.29
2018-06-09T04:04:55.191Z,19.39
2018-06-09T04:05:55.016Z,19.45
2018-06-09T04:06:55.237Z,19.47
2018-06-09T04:07:55.009Z,19.36
2018-06-09T04:08:55.099Z,19.33
2018-06-09T04:09:55.055Z,19.37
2018-06-09T04:10:55.133Z,19.45
2018-06-09T04:11:55.363Z,19.48
2018-06-09T04:12:55.125Z,19.55
2018-06-09T04:13:55.152Z,19.71
2018-06-09T04:14:55.429Z,19.76
2018-06-09T04:15:55.501Z,19.77
2018-06-09T04:16:55.224Z,19.84
2018-06-09T04:17:55.255Z,19.88
2018-06-09T04:18:55.274Z,19.99
2018-06-09T04:19:55.545Z,20.09
2018-06-09T04:20:55.574Z,20.19
2018-06-09T04:21:55.345Z,20.25
2018-06-09T04:22:55.378Z,20.34
2018-06-09T04:23:55.644Z,20.32
2018-06-09T04:24:55.709Z,20.36
2018-06-09T04:25:55.693Z,20.4
2018-06-09T04:26:55.714Z,20.41
2018-06-09T04:27:55.497Z,20.44
2018-06-09T04:28:55.762Z,20.44
2018-06-09T04:29:55.787Z,20.34
2018-06-09T04:30:55.868Z,20.26
2018-06-09T04:31:55.842Z,20.31
2018-06-09T04:32:55.867Z,20.24
2018-06-09T04:33:56.014Z,20.24
2018-06-09T04:34:55.922Z,20.22
2018-06-09T04:35:55.740Z,19.76
2018-06-09T04:36:55.457Z,19.69
2018-06-09T04:37:55.480Z,19.66
2018-06-09T04:38:55.772Z,19.86
2018-06-09T04:39:56.175Z,20.06
2018-06-09T04:40:56.067Z,20.19
2018-06-09T04:41:56.088Z,20.28
2018-06-09T04:42:56.105Z,20.26
2018-06-09T04:43:56.132Z,20.21
2018-06-09T04:44:56.166Z,20.29
2018-06-09T04:45:55.728Z,20.07
2018-06-09T04:46:56.219Z,19.92
2018-06-09T04:47:56.242Z,20.06
2018-06-09T04:48:56.266Z,20.06
2018-06-09T04:49:56.277Z,20.03
2018-06-09T04:50:56.301Z,19.99
2018-06-09T04:51:56.325Z,20.26
2018-06-09T04:52:56.101Z,20.31
2018-06-09T04:53:56.123Z,20.22
2018-06-09T04:54:56.401Z,20.22
2018-06-09T04:55:56.175Z,20.31
2018-06-09T04:56:56.449Z,20.4
2018-06-09T04:57:56.223Z,20.29
2018-06-09T04:58:56.501Z,20.36
2018-06-09T04:59:56.271Z,20.37
2018-06-09T05:00:56.344Z,20.36
2018-06-09T05:01:56.581Z,20.34
2018-06-09T05:02:56.608Z,20.37
2018-06-09T05:03:56.620Z,20.22
2018-06-09T05:04:56.392Z,20.22
2018-06-09T05:05:56.688Z,20.28
2018-06-09T05:06:56.699Z,20.24
2018-06-09T05:07:56.721Z,20.18
2018-06-09T05:08:56.745Z,20.16
2018-06-09T05:09:56.787Z,20.11
2018-06-09T05:10:56.788Z,20.1
2018-06-09T05:11:56.820Z,19.88
2018-06-09T05:12:56.912Z,19.92
2018-06-09T05:13:56.868Z,19.89
2018-06-09T05:14:56.910Z,20
2018-06-09T05:15:57.065Z,20.09
2018-06-09T05:16:56.933Z,20.18
2018-06-09T05:17:56.955Z,20.39
2018-06-09T05:18:56.725Z,20.34
2018-06-09T05:19:56.753Z,20.29
2018-06-09T05:20:57.027Z,20.37
2018-06-09T05:21:57.059Z,20.37
2018-06-09T05:22:57.079Z,20.34
2018-06-09T05:23:57.100Z,20.39
2018-06-09T05:24:57.129Z,20.31
2018-06-09T05:25:57.170Z,20.19
2018-06-09T05:26:57.178Z,20.21
2018-06-09T05:27:57.224Z,20.25
2018-06-09T05:28:57.227Z,20.28
2018-06-09T05:29:56.992Z,20.39
2018-06-09T05:30:57.073Z,20.34
2018-06-09T05:31:57.044Z,20.07
2018-06-09T05:32:57.320Z,20.04
2018-06-09T05:33:57.350Z,20.11
2018-06-09T05:34:57.370Z,20.04
2018-06-09T05:35:57.505Z,20.04
2018-06-09T05:36:57.174Z,20.21
2018-06-09T05:37:57.200Z,20.29
2018-06-09T05:38:56.970Z,20.34
2018-06-09T05:39:57.504Z,20.26
2018-06-09T05:40:57.533Z,20.18
2018-06-09T05:41:57.551Z,20.22
2018-06-09T05:42:57.578Z,20.22
2018-06-09T05:43:57.603Z,20.26
2018-06-09T05:44:57.373Z,20.37
2018-06-09T05:45:57.804Z,20.51
2018-06-09T05:46:57.428Z,20.56
2018-06-09T05:47:57.693Z,20.52
2018-06-09T05:48:57.471Z,20.44
2018-06-09T05:49:57.491Z,20.56
2018-06-09T05:50:57.773Z,20.52
2018-06-09T05:51:57.822Z,20.4
2018-06-09T05:52:57.821Z,20.65
2018-06-09T05:53:57.843Z,20.65
2018-06-09T05:54:57.864Z,20.77
2018-06-09T05:55:57.891Z,20.69
2018-06-09T05:56:57.938Z,20.67
2018-06-09T05:57:57.941Z,20.77
2018-06-09T05:58:57.966Z,20.72
2018-06-09T05:59:57.988Z,20.77
2018-06-09T06:00:58.059Z,20.74
2018-06-09T06:01:57.550Z,20.75
2018-06-09T06:02:58.113Z,20.9
2018-06-09T06:03:58.174Z,20.75
2018-06-09T06:04:57.871Z,20.82
2018-06-09T06:05:57.993Z,20.84
2018-06-09T06:06:57.667Z,20.8
2018-06-09T06:07:57.947Z,20.88
2018-06-09T06:08:57.968Z,20.82
2018-06-09T06:09:58.243Z,20.99
2018-06-09T06:10:58.319Z,21.03
2018-06-09T06:11:58.298Z,21.05
2018-06-09T06:12:58.317Z,20.92
2018-06-09T06:13:58.340Z,21.03
2018-06-09T06:14:58.368Z,20.96
2018-06-09T06:15:58.392Z,21.03
2018-06-09T06:16:57.910Z,20.92
2018-06-09T06:17:58.192Z,20.96
2018-06-09T06:18:58.468Z,20.75
2018-06-09T06:19:58.491Z,20.77
2018-06-09T06:20:58.262Z,20.92
2018-06-09T06:21:58.282Z,21.05
2018-06-09T06:22:58.561Z,21.06
2018-06-09T06:23:58.586Z,21.2
2018-06-09T06:24:58.349Z,21.3
2018-06-09T06:25:58.439Z,21.43
2018-06-09T06:26:58.413Z,21.17
2018-06-09T06:27:58.701Z,21.2
2018-06-09T06:28:58.213Z,21.3
2018-06-09T06:29:58.492Z,21.46
2018-06-09T06:30:58.768Z,21.33
2018-06-09T06:31:59.029Z,21.33
2018-06-09T06:32:58.571Z,21.24
2018-06-09T06:33:58.597Z,21.18
2018-06-09T06:34:58.877Z,21.3
2018-06-09T06:35:58.902Z,21.15
2018-06-09T06:36:58.922Z,21.3
2018-06-09T06:37:58.694Z,21.5
2018-06-09T06:38:58.976Z,21.42
2018-06-09T06:39:58.755Z,21.46
2018-06-09T06:40:59.069Z,21.66
2018-06-09T06:41:59.042Z,21.72
2018-06-09T06:42:58.582Z,21.72
2018-06-09T06:43:58.841Z,21.82
2018-06-09T06:44:58.922Z,21.76
2018-06-09T06:45:58.891Z,21.62
2018-06-09T06:46:58.923Z,21.62
2018-06-09T06:47:59.192Z,21.77
2018-06-09T06:48:58.966Z,21.75
2018-06-09T06:49:59.255Z,21.77
2018-06-09T06:50:59.276Z,22.07
2018-06-09T06:51:59.316Z,22.11
2018-06-09T06:52:59.326Z,22.08
2018-06-09T06:53:59.351Z,22.13
2018-06-09T06:54:59.378Z,21.95
2018-06-09T06:55:59.203Z,21.95
2018-06-09T06:56:59.438Z,21.75
2018-06-09T06:57:59.221Z,21.77
2018-06-09T06:58:59.226Z,21.73
2018-06-09T06:59:59.539Z,21.83
2018-06-09T07:00:59.278Z,21.79
2018-06-09T07:01:59.394Z,21.77
2018-06-09T07:02:59.328Z,21.82
2018-06-09T07:03:59.605Z,21.88
2018-06-09T07:04:59.391Z,21.82
2018-06-09T07:05:59.658Z,21.8
2018-06-09T07:06:59.689Z,21.83
2018-06-09T07:07:59.818Z,22
2018-06-09T07:08:59.737Z,22.17
2018-06-09T07:09:59.764Z,22.04
2018-06-09T07:10:59.846Z,22.11
2018-06-09T07:11:59.565Z,22.22
2018-06-09T07:12:59.609Z,22.3
2018-06-09T07:13:59.868Z,22.39
2018-06-09T07:14:59.894Z,22.51
2018-06-09T07:15:59.662Z,22.38
2018-06-09T07:16:59.948Z,22.5
2018-06-09T07:17:59.722Z,22.72
2018-06-09T07:18:59.998Z,22.51
2018-06-09T07:20:00.041Z,22.44
2018-06-09T07:21:00.048Z,22.44
2018-06-09T07:22:00.075Z,22.47
2018-06-09T07:23:00.097Z,22.44
2018-06-09T07:24:00.127Z,22.54
2018-06-09T07:25:00.352Z,22.66
2018-06-09T07:26:00.230Z,22.76
2018-06-09T07:26:59.700Z,22.87
2018-06-09T07:28:00.232Z,22.83
2018-06-09T07:29:00.259Z,22.84
2018-06-09T07:30:00.286Z,22.99
2018-06-09T07:31:00.114Z,23.08
2018-06-09T07:32:00.344Z,22.98
2018-06-09T07:33:00.113Z,22.94
2018-06-09T07:34:00.145Z,23.13
2018-06-09T07:35:00.162Z,23.31
2018-06-09T07:36:00.192Z,23.34
2018-06-09T07:37:00.221Z,23.25
2018-06-09T07:38:00.246Z,23.34
2018-06-09T07:39:00.526Z,23.25
2018-06-09T07:40:00.297Z,23.4
2018-06-09T07:41:00.373Z,23.47
2018-06-09T07:42:00.606Z,23.48
2018-06-09T07:43:00.122Z,23.55
2018-06-09T07:44:00.655Z,23.87
2018-06-09T07:45:00.426Z,23.96
2018-06-09T07:46:00.759Z,23.88
2018-06-09T07:47:00.739Z,24.21
2018-06-09T07:48:00.585Z,24.33
2018-06-09T07:49:00.788Z,24.24
2018-06-09T07:50:00.818Z,24.43
2018-06-09T07:51:00.843Z,24.4
2018-06-09T07:52:00.873Z,24.39
2018-06-09T07:53:00.906Z,24.3
2018-06-09T07:54:00.944Z,24.11
2018-06-09T07:55:01.143Z,24.13
2018-06-09T07:56:00.963Z,24.02
2018-06-09T07:57:00.997Z,23.87
2018-06-09T07:58:01.021Z,24.03
2018-06-09T07:59:00.798Z,24.33
2018-06-09T08:00:01.081Z,24.18
2018-06-09T08:01:01.165Z,24.51
2018-06-09T08:02:01.142Z,24.57
2018-06-09T08:03:01.169Z,24.54
2018-06-09T08:04:01.194Z,24.24
2018-06-09T08:05:01.221Z,24.13
2018-06-09T08:06:00.990Z,24.01
2018-06-09T08:07:01.297Z,23.88
2018-06-09T08:08:01.299Z,23.95
2018-06-09T08:09:01.090Z,23.93
2018-06-09T08:10:01.358Z,23.98
2018-06-09T08:11:01.391Z,24.21
2018-06-09T08:12:01.410Z,24.36
2018-06-09T08:13:01.438Z,24.54
2018-06-09T08:14:01.542Z,24.76
2018-06-09T08:15:01.222Z,24.68
2018-06-09T08:16:01.555Z,24.63
2018-06-09T08:17:01.558Z,24.77
2018-06-09T08:18:01.578Z,24.74
2018-06-09T08:19:01.347Z,24.74
2018-06-09T08:20:01.631Z,24.92
2018-06-09T08:21:01.660Z,24.6
2018-06-09T08:22:01.684Z,24.63
2018-06-09T08:23:01.717Z,24.73
2018-06-09T08:24:01.734Z,24.81
2018-06-09T08:25:01.522Z,24.7
2018-06-09T08:26:01.804Z,24.66
2018-06-09T08:27:01.825Z,24.55
2018-06-09T08:28:01.848Z,24.29
2018-06-09T08:29:01.912Z,24.32
2018-06-09T08:30:01.905Z,24.24
2018-06-09T08:31:01.837Z,24.18
2018-06-09T08:32:01.705Z,24.21
2018-06-09T08:33:01.983Z,24.5
2018-06-09T08:34:01.755Z,24.57
2018-06-09T08:35:01.789Z,24.29
2018-06-09T08:36:02.164Z,24.21
2018-06-09T08:37:01.836Z,24.17
2018-06-09T08:38:02.113Z,24.4
2018-06-09T08:39:01.893Z,24.43
2018-06-09T08:40:02.167Z,24.69
2018-06-09T08:41:02.249Z,24.74
2018-06-09T08:42:02.420Z,24.54
2018-06-09T08:43:01.998Z,24.58
2018-06-09T08:44:02.284Z,24.42
2018-06-09T08:45:02.306Z,24.53
2018-06-09T08:46:02.336Z,24.43
2018-06-09T08:47:02.370Z,24.57
2018-06-09T08:48:02.141Z,24.57
2018-06-09T08:49:02.167Z,24.88
2018-06-09T08:50:02.456Z,24.88
2018-06-09T08:51:02.230Z,25.21
2018-06-09T08:52:02.508Z,25.1
2018-06-09T08:53:02.280Z,25.1
2018-06-09T08:54:02.562Z,25.08
2018-06-09T08:55:02.338Z,25.04
2018-06-09T08:56:02.671Z,25.08
2018-06-09T08:57:02.411Z,25.21
2018-06-09T08:58:02.667Z,25.41
2018-06-09T08:59:02.706Z,25.29
2018-06-09T09:00:02.501Z,25.38
2018-06-09T09:01:02.756Z,25.58
2018-06-09T09:02:02.535Z,25.7
2018-06-09T09:03:02.817Z,25.93
2018-06-09T09:04:02.841Z,26.31
2018-06-09T09:05:02.619Z,26.6
2018-06-09T09:06:02.899Z,26.62
2018-06-09T09:07:02.925Z,26.63
2018-06-09T09:08:02.941Z,26.83
2018-06-09T09:09:02.966Z,27.12
2018-06-09T09:10:02.744Z,27.12
2018-06-09T09:11:03.074Z,27.25
2018-06-09T09:12:03.065Z,27.33
2018-06-09T09:13:03.086Z,27.42
2018-06-09T09:14:03.107Z,27.77
2018-06-09T09:15:03.142Z,27.98
2018-06-09T09:16:02.918Z,28.22
2018-06-09T09:17:03.227Z,28.08
2018-06-09T09:18:03.238Z,28.04
2018-06-09T09:19:03.012Z,28.11
2018-06-09T09:20:03.298Z,27.85
2018-06-09T09:21:03.349Z,27.67
2018-06-09T09:22:03.356Z,27.74
2018-06-09T09:23:03.386Z,27.73
2018-06-09T09:24:03.414Z,27.96
2018-06-09T09:25:03.448Z,28.27
2018-06-09T09:26:03.522Z,28.45
2018-06-09T09:27:03.506Z,28.19
2018-06-09T09:28:03.550Z,28.07
2018-06-09T09:29:03.563Z,28.04
2018-06-09T09:30:03.597Z,27.6
2018-06-09T09:31:03.616Z,27.25
2018-06-09T09:32:03.686Z,27.2
2018-06-09T09:33:03.689Z,26.77
2018-06-09T09:34:03.453Z,26.81
2018-06-09T09:35:03.761Z,27.07
2018-06-09T09:36:03.769Z,26.68
2018-06-09T09:37:03.545Z,26.65
2018-06-09T09:38:03.830Z,26.58
2018-06-09T09:39:03.854Z,26.48
2018-06-09T09:40:03.652Z,26.33
2018-06-09T09:41:03.961Z,26.28
2018-06-09T09:42:03.945Z,26.26
2018-06-09T09:43:03.723Z,26.13
2018-06-09T09:44:03.999Z,26.34
2018-06-09T09:45:04.030Z,26.62
2018-06-09T09:46:04.055Z,27.08
2018-06-09T09:47:03.832Z,27.36
2018-06-09T09:48:03.869Z,27.45
2018-06-09T09:49:04.143Z,27.58
2018-06-09T09:50:04.171Z,27.39
2018-06-09T09:51:04.209Z,27.12
2018-06-09T09:52:03.979Z,27.08
2018-06-09T09:53:04.257Z,26.74
2018-06-09T09:54:04.293Z,26.6
2018-06-09T09:55:04.064Z,27.15
2018-06-09T09:56:03.886Z,27.42
2018-06-09T09:57:04.374Z,27.85
2018-06-09T09:58:04.405Z,28.41
2018-06-09T09:59:04.432Z,28.79
2018-06-09T10:00:04.211Z,28.63
2018-06-09T10:01:04.553Z,28.69
2018-06-09T10:02:04.268Z,29.04
2018-06-09T10:03:04.560Z,29.07
2018-06-09T10:04:04.587Z,28.69
2018-06-09T10:05:04.610Z,28.38
2018-06-09T10:06:04.667Z,28.47
2018-06-09T10:07:04.671Z,28.7
2018-06-09T10:08:04.700Z,28.86
2018-06-09T10:09:04.483Z,29.14
2018-06-09T10:10:04.524Z,29.59
2018-06-09T10:11:04.521Z,30.23
2018-06-09T10:12:04.810Z,30.9
2018-06-09T10:13:04.837Z,31.37
2018-06-09T10:14:04.865Z,31.34
2018-06-09T10:15:04.901Z,30.84
2018-06-09T10:16:04.925Z,29.98
2018-06-09T10:17:04.980Z,30.06
2018-06-09T10:18:05.024Z,29.75
2018-06-09T10:19:05.044Z,29.76
2018-06-09T10:20:04.813Z,29.75
2018-06-09T10:21:04.864Z,29.44
2018-06-09T10:22:05.133Z,29.72
2018-06-09T10:23:05.159Z,30.31
2018-06-09T10:24:05.215Z,30.65
2018-06-09T10:25:04.973Z,30.72
2018-06-09T10:26:05.004Z,30.77
2018-06-09T10:27:05.289Z,30.81
2018-06-09T10:28:05.317Z,31.18
2018-06-09T10:29:05.094Z,31.59
2018-06-09T10:30:05.134Z,32.07
2018-06-09T10:31:05.413Z,32.56
2018-06-09T10:32:05.194Z,32.82
2018-06-09T10:33:05.475Z,32.52
2018-06-09T10:34:05.509Z,32.48
2018-06-09T10:35:05.541Z,32.85
2018-06-09T10:36:05.329Z,32.43
2018-06-09T10:37:05.611Z,32.04
2018-06-09T10:38:05.643Z,31.9
2018-06-09T10:39:05.417Z,31.94
2018-06-09T10:40:05.451Z,31.17
2018-06-09T10:41:05.733Z,31.2
2018-06-09T10:42:05.769Z,30.9
2018-06-09T10:43:05.548Z,30.3
2018-06-09T10:44:05.575Z,29.98
2018-06-09T10:45:05.358Z,29.69
2018-06-09T10:46:05.668Z,29.51
2018-06-09T10:47:05.675Z,29.57
2018-06-09T10:48:05.977Z,30
2018-06-09T10:49:05.731Z,30.47
2018-06-09T10:50:05.762Z,30.57
2018-06-09T10:51:05.794Z,30.21
2018-06-09T10:52:05.829Z,30.24
2018-06-09T10:53:05.625Z,30.61
2018-06-09T10:54:06.147Z,30.88
2018-06-09T10:55:06.178Z,31.15
2018-06-09T10:56:05.949Z,31.37
2018-06-09T10:57:05.973Z,31.49
2018-06-09T10:58:06.254Z,31.17
2018-06-09T10:59:06.041Z,31.49
2018-06-09T11:00:06.070Z,32.04
2018-06-09T11:01:05.854Z,32.46
2018-06-09T11:02:06.133Z,32.8
2018-06-09T11:03:06.416Z,32.85
2018-06-09T11:04:06.461Z,32.83
2018-06-09T11:05:06.502Z,32.4
2018-06-09T11:06:06.272Z,32.46
2018-06-09T11:07:06.301Z,31.87
2018-06-09T11:08:06.087Z,32.27
2018-06-09T11:09:06.622Z,31.9
2018-06-09T11:10:06.537Z,31.59
2018-06-09T11:11:06.465Z,31.76
2018-06-09T11:12:06.472Z,31.73
2018-06-09T11:13:06.758Z,32.21
2018-06-09T11:14:06.276Z,32.83
2018-06-09T11:15:06.800Z,33.14
2018-06-09T11:16:06.589Z,33.32
2018-06-09T11:17:06.693Z,33.9
2018-06-09T11:18:06.914Z,34.17
2018-06-09T11:19:06.957Z,33.92
2018-06-09T11:20:06.989Z,33.4
2018-06-09T11:21:07.014Z,32.9
2018-06-09T11:22:06.540Z,33.2
2018-06-09T11:23:06.828Z,33.74
2018-06-09T11:24:06.857Z,34.14
2018-06-09T11:25:07.157Z,34.18
2018-06-09T11:26:07.176Z,33.24
2018-06-09T11:27:06.964Z,32.65
2018-06-09T11:28:06.986Z,32.29
2018-06-09T11:29:07.272Z,31.74
2018-06-09T11:30:07.307Z,31.74
2018-06-09T11:31:07.087Z,31.64
2018-06-09T11:32:07.370Z,31.65
2018-06-09T11:33:06.897Z,31.87
2018-06-09T11:34:07.438Z,32.41
2018-06-09T11:35:07.214Z,32.71
2018-06-09T11:36:07.000Z,33.43
2018-06-09T11:37:07.559Z,34.23
2018-06-09T11:38:07.308Z,34.47
2018-06-09T11:39:07.340Z,34.57
2018-06-09T11:40:07.626Z,34.61
2018-06-09T11:41:07.156Z,34.5
2018-06-09T11:42:07.695Z,34.17
2018-06-09T11:43:07.720Z,34.7
2018-06-09T11:44:07.503Z,35.34
2018-06-09T11:45:07.789Z,35.63
2018-06-09T11:46:07.835Z,35.7
2018-06-09T11:47:07.990Z,35.93
2018-06-09T11:48:07.890Z,36.36
2018-06-09T11:49:07.925Z,36.39
2018-06-09T11:50:07.957Z,36.95
2018-06-09T11:51:07.735Z,37.32
2018-06-09T11:52:08.020Z,37.63
2018-06-09T11:53:07.800Z,37.7
2018-06-09T11:54:07.835Z,37.94
2018-06-09T11:55:07.874Z,38.23
2018-06-09T11:56:08.156Z,38.42
2018-06-09T11:57:08.193Z,38.95
2018-06-09T11:58:08.230Z,39.43
2018-06-09T11:59:08.022Z,39.3
2018-06-09T12:00:08.068Z,38.95
2018-06-09T12:01:08.090Z,38.8
2018-06-09T12:02:08.124Z,38.71
2018-06-09T12:03:08.163Z,39.18
2018-06-09T12:04:08.449Z,39.36
2018-06-09T12:05:08.484Z,39.07
2018-06-09T12:06:08.519Z,39.04
2018-06-09T12:07:08.302Z,38.5
2018-06-09T12:08:08.337Z,39.06
2018-06-09T12:09:08.625Z,39.62
2018-06-09T12:10:08.409Z,39.83
2018-06-09T12:11:08.859Z,39.55
2018-06-09T12:12:08.741Z,39.43
2018-06-09T12:13:08.265Z,39.19
2018-06-09T12:14:08.550Z,39.72
2018-06-09T12:15:08.585Z,40.24
2018-06-09T12:16:08.876Z,40.33
2018-06-09T12:17:08.911Z,39.75
2018-06-09T12:18:08.952Z,39.87
2018-06-09T12:19:08.984Z,39.67
2018-06-09T12:20:09.133Z,40.16
2018-06-09T12:21:09.058Z,40.38
2018-06-09T12:22:09.092Z,41.07
2018-06-09T12:23:09.127Z,41.04
2018-06-09T12:24:08.938Z,40.5
2018-06-09T12:25:09.374Z,39.93
2018-06-09T12:26:09.248Z,40.08
2018-06-09T12:27:09.288Z,39.86
2018-06-09T12:28:09.314Z,40.12
2018-06-09T12:29:09.342Z,40.27
2018-06-09T12:30:09.123Z,40.88
2018-06-09T12:31:09.160Z,41.72
2018-06-09T12:32:09.464Z,42.39
2018-06-09T12:33:09.252Z,42.88
2018-06-09T12:34:09.535Z,43.33
2018-06-09T12:35:09.328Z,42.38
2018-06-09T12:36:09.609Z,42.43
2018-06-09T12:37:09.647Z,41.34
2018-06-09T12:38:09.427Z,41.74
2018-06-09T12:39:09.471Z,41.95
2018-06-09T12:40:09.500Z,42.02
2018-06-09T12:41:09.545Z,41.63
2018-06-09T12:42:09.832Z,41.91
2018-06-09T12:43:09.605Z,40.26
2018-06-09T12:44:09.390Z,39.9
2018-06-09T12:45:09.677Z,40.75
2018-06-09T12:46:09.724Z,41.52
2018-06-09T12:47:10.017Z,41.4
2018-06-09T12:48:09.804Z,41.75
2018-06-09T12:49:09.585Z,41.85
2018-06-09T12:50:10.149Z,41.59
2018-06-09T12:51:10.216Z,41.74
2018-06-09T12:52:10.196Z,42.01
2018-06-09T12:53:09.729Z,41.87
2018-06-09T12:54:10.036Z,42.02
2018-06-09T12:55:10.051Z,41.75
2018-06-09T12:56:10.353Z,41.04